createdAt,value
2018-12-05T00:01:38.954Z,97264.00
2018-12-05T00:06:47.789Z,97265.00
2018-12-05T00:11:56.686Z,97255.00
2018-12-05T00:17:05.504Z,97256.00
2018-12-05T00:22:08.446Z,97264.00
2018-12-05T00:39:49.570Z,97268.00
2018-12-05T00:57:41.634Z,97290.00
2018-12-05T01:02:44.549Z,97291.00
2018-12-05T01:07:53.350Z,97300.00
2018-12-05T01:13:02.053Z,97303.00
2018-12-05T01:18:11.329Z,97301.00
2018-12-05T01:23:14.298Z,97306.00
2018-12-05T01:59:52.510Z,97293.00
2018-12-05T02:04:55.444Z,97299.00
2018-12-05T02:10:04.680Z,97294.00
2018-12-05T02:15:13.458Z,97285.00
2018-12-05T02:20:22.434Z,97273.00
2018-12-05T02:25:25.258Z,97271.00
2018-12-05T03:08:07.518Z,97300.00
2018-12-05T03:13:10.420Z,97299.00
2018-12-05T03:18:19.115Z,97291.00
2018-12-05T03:23:28.835Z,97294.00
2018-12-05T03:28:37.605Z,97273.00
2018-12-05T03:33:40.590Z,97272.00
2018-12-05T03:51:22.015Z,97258.00
2018-12-05T04:09:14.320Z,97258.00
2018-12-05T04:14:17.147Z,97236.00
2018-12-05T04:19:25.960Z,97265.00
2018-12-05T04:24:34.779Z,97267.00
2018-12-05T04:29:43.559Z,97276.00
2018-12-05T04:34:46.423Z,97278.00
2018-12-05T05:09:18.626Z,97308.00
2018-12-05T05:14:22.505Z,97323.00
2018-12-05T05:19:26.020Z,97314.00
2018-12-05T05:24:36.045Z,97321.00
2018-12-05T05:29:41.543Z,97321.00
2018-12-05T05:34:52.036Z,97323.00
2018-12-05T05:40:00.849Z,97310.00
2018-12-05T05:45:09.787Z,97311.00
2018-12-05T05:50:12.672Z,97305.00
2018-12-05T06:14:03.609Z,97334.00
2018-12-05T06:19:13.274Z,97338.00
2018-12-05T06:24:31.760Z,97326.00
2018-12-05T06:29:34.711Z,97328.00
2018-12-05T06:34:37.943Z,97336.00
2018-12-05T06:39:46.816Z,97335.00
2018-12-05T06:44:55.776Z,97325.00
2018-12-05T06:50:05.200Z,97325.00
2018-12-05T06:55:08.002Z,97333.00
2018-12-05T07:00:16.898Z,97341.00
2018-12-05T07:05:25.594Z,97335.00
2018-12-05T07:10:34.481Z,97340.00
2018-12-05T07:15:37.982Z,97352.00
2018-12-05T07:20:46.734Z,97360.00
2018-12-05T07:38:23.905Z,97367.00
2018-12-05T07:43:33.210Z,97372.00
2018-12-05T07:48:43.099Z,97363.00
2018-12-05T07:53:46.163Z,97369.00
2018-12-05T07:58:51.192Z,97372.00
2018-12-05T08:03:55.179Z,97373.00
2018-12-05T08:08:59.026Z,97373.00
2018-12-05T08:14:03.709Z,97381.00
2018-12-05T08:19:10.622Z,97388.00
2018-12-05T08:24:14.728Z,97393.00
2018-12-05T08:29:18.677Z,97395.00
2018-12-05T08:34:27.451Z,97392.00
2018-12-05T08:39:36.600Z,97409.00
2018-12-05T08:57:22.644Z,97408.00
2018-12-05T09:15:38.756Z,97433.00
2018-12-05T09:20:49.996Z,97431.00
2018-12-05T09:25:59.278Z,97425.00
2018-12-05T09:31:10.238Z,97428.00
2018-12-05T10:07:55.724Z,97403.00
2018-12-05T10:12:58.761Z,97398.00
2018-12-05T10:18:12.524Z,97392.00
2018-12-05T10:23:17.643Z,97394.00
2018-12-05T10:28:26.874Z,97394.00
2018-12-05T10:33:36.796Z,97375.00
2018-12-05T10:39:07.768Z,97372.00
2018-12-05T10:44:15.562Z,97360.00
2018-12-05T11:04:03.231Z,97340.00
2018-12-05T11:09:13.706Z,97353.00
2018-12-05T11:14:27.944Z,97330.00
2018-12-05T11:32:04.009Z,97320.00
2018-12-05T11:37:16.560Z,97315.00
2018-12-05T11:42:27.366Z,97300.00
2018-12-05T11:47:36.135Z,97298.00
2018-12-05T11:52:38.954Z,97293.00
2018-12-05T11:57:47.986Z,97275.00
2018-12-05T12:21:38.114Z,97268.00
2018-12-05T12:26:46.957Z,97257.00
2018-12-05T12:31:55.802Z,97259.00
2018-12-05T12:36:58.748Z,97237.00
2018-12-05T12:42:07.518Z,97237.00
2018-12-05T12:47:16.274Z,97244.00
2018-12-05T13:04:51.602Z,97228.00
2018-12-05T13:41:12.541Z,97193.00
2018-12-05T13:46:15.622Z,97197.00
2018-12-05T14:03:56.251Z,97174.00
2018-12-05T14:22:07.310Z,97150.00
2018-12-05T14:27:10.114Z,97152.00
2018-12-05T14:32:18.954Z,97163.00
2018-12-05T14:37:27.796Z,97072.00
2018-12-05T14:42:36.663Z,97149.00
2018-12-05T14:47:41.430Z,97158.00
2018-12-05T15:05:23.591Z,97128.00
2018-12-05T15:23:15.570Z,97118.00
2018-12-05T15:28:18.870Z,97112.00
2018-12-05T15:33:27.603Z,97101.00
2018-12-05T15:38:36.355Z,97099.00
2018-12-05T15:43:45.338Z,97097.00
2018-12-05T15:48:48.387Z,97093.00
2018-12-05T16:06:28.050Z,97079.00
2018-12-05T16:24:23.418Z,97067.00
2018-12-05T16:29:26.254Z,97052.00
2018-12-05T16:34:36.591Z,97062.00
2018-12-05T16:39:45.410Z,97053.00
2018-12-05T16:44:54.305Z,97038.00
2018-12-05T16:49:57.240Z,97042.00
2018-12-05T17:07:37.503Z,97028.00
2018-12-05T17:25:28.712Z,97015.00
2018-12-05T17:30:31.578Z,97020.00
2018-12-05T17:35:40.339Z,97008.00
2018-12-05T17:40:49.103Z,97010.00
2018-12-05T17:45:57.955Z,97003.00
2018-12-05T17:51:00.982Z,97002.00
2018-12-05T18:08:40.974Z,96977.00
2018-12-05T18:13:44.121Z,96964.00
2018-12-05T18:18:52.808Z,96963.00
2018-12-05T18:24:02.466Z,96953.00
2018-12-05T18:29:11.442Z,96951.00
2018-12-05T18:34:14.358Z,96949.00
2018-12-05T18:47:40.265Z,96952.00
2018-12-05T18:52:49.494Z,96942.00
2018-12-05T18:57:55.823Z,96949.00
2018-12-05T19:03:03.038Z,96938.00
2018-12-05T19:08:10.062Z,96945.00
2018-12-05T19:13:17.024Z,96920.00
2018-12-05T19:18:25.556Z,96914.00
2018-12-05T19:23:35.263Z,96900.00
2018-12-05T19:28:39.451Z,96896.00
2018-12-05T19:33:45.877Z,96894.00
2018-12-05T19:38:55.310Z,96892.00
2018-12-05T20:02:48.467Z,96880.00
2018-12-05T20:07:58.241Z,96870.00
2018-12-05T20:13:07.220Z,96855.00
2018-12-05T20:18:11.106Z,96836.00
2018-12-05T20:23:21.495Z,96829.00
2018-12-05T20:28:31.207Z,96844.00
2018-12-05T20:46:06.197Z,96799.00
2018-12-05T20:51:15.563Z,96809.00
2018-12-05T20:56:24.513Z,96815.00
2018-12-05T21:01:28.019Z,96806.00
2018-12-05T21:06:37.191Z,96815.00
2018-12-05T21:11:47.095Z,96794.00
2018-12-05T21:35:38.832Z,96770.00
2018-12-05T21:40:48.449Z,96767.00
2018-12-05T22:35:48.635Z,96722.00
2018-12-05T22:40:57.565Z,96715.00
2018-12-05T22:58:32.926Z,96694.00
2018-12-05T23:40:59.018Z,96641.00
